sensor_id;sensor_type;location;lat;lon;timestamp;pressure;altitude;pressure_sealevel;temperature;humidity
48942;BME280;35340;52.378;4.648;2023-02-14T00:01:43;103541.97;;;17.12;52.94
48942;BME280;35340;52.378;4.648;2023-02-14T00:04:10;103548.84;;;17.11;52.73
48942;BME280;35340;52.378;4.648;2023-02-14T00:06:38;103553.19;;;17.11;52.81
48942;BME280;35340;52.378;4.648;2023-02-14T00:09:05;103547.91;;;17.09;52.88
48942;BME280;35340;52.378;4.648;2023-02-14T00:11:31;103545.38;;;17.11;52.82
48942;BME280;35340;52.378;4.648;2023-02-14T00:13:57;103547.09;;;17.10;52.67
48942;BME280;35340;52.378;4.648;2023-02-14T00:16:42;103547.91;;;17.09;52.77
48942;BME280;35340;52.378;4.648;2023-02-14T00:19:11;103547.03;;;17.09;52.67
48942;BME280;35340;52.378;4.648;2023-02-14T00:21:38;103540.94;;;17.08;52.68
48942;BME280;35340;52.378;4.648;2023-02-14T00:24:13;103539.22;;;17.09;52.75
48942;BME280;35340;52.378;4.648;2023-02-14T00:26:39;103540.94;;;17.08;52.64
48942;BME280;35340;52.378;4.648;2023-02-14T00:29:11;103534.88;;;17.08;52.72
48942;BME280;35340;52.378;4.648;2023-02-14T00:31:37;103535.69;;;17.06;52.50
48942;BME280;35340;52.378;4.648;2023-02-14T00:34:03;103529.59;;;17.06;52.66
48942;BME280;35340;52.378;4.648;2023-02-14T00:36:29;103533.94;;;17.05;52.69
48942;BME280;35340;52.378;4.648;2023-02-14T00:38:55;103525.25;;;17.05;52.64
48942;BME280;35340;52.378;4.648;2023-02-14T00:41:21;103526.13;;;17.05;52.76
48942;BME280;35340;52.378;4.648;2023-02-14T00:43:48;103523.53;;;17.05;52.50
48942;BME280;35340;52.378;4.648;2023-02-14T00:46:14;103525.25;;;17.05;52.59
48942;BME280;35340;52.378;4.648;2023-02-14T00:48:40;103522.66;;;17.05;52.54
48942;BME280;35340;52.378;4.648;2023-02-14T00:51:06;103520.84;;;17.04;52.67
48942;BME280;35340;52.378;4.648;2023-02-14T00:53:32;103511.28;;;17.03;52.54
48942;BME280;35340;52.378;4.648;2023-02-14T00:55:57;103513.91;;;17.03;52.48
48942;BME280;35340;52.378;4.648;2023-02-14T00:58:23;103508.69;;;17.03;52.45
48942;BME280;35340;52.378;4.648;2023-02-14T01:00:48;103519.91;;;17.02;52.58
48942;BME280;35340;52.378;4.648;2023-02-14T01:03:14;103506.84;;;17.00;52.54
48942;BME280;35340;52.378;4.648;2023-02-14T01:05:39;103516.44;;;17.01;52.38
48942;BME280;35340;52.378;4.648;2023-02-14T01:08:05;103510.34;;;17.01;52.48
48942;BME280;35340;52.378;4.648;2023-02-14T01:10:31;103509.44;;;17.00;52.43
48942;BME280;35340;52.378;4.648;2023-02-14T01:13:00;103508.56;;;17.00;52.31
48942;BME280;35340;52.378;4.648;2023-02-14T01:15:25;103507.69;;;16.99;52.48
48942;BME280;35340;52.378;4.648;2023-02-14T01:17:51;103513.78;;;17.00;52.40
48942;BME280;35340;52.378;4.648;2023-02-14T01:20:16;103512.03;;;16.99;52.45
48942;BME280;35340;52.378;4.648;2023-02-14T01:22:44;103499.88;;;16.99;52.63
48942;BME280;35340;52.378;4.648;2023-02-14T01:25:10;103504.22;;;16.99;52.25
48942;BME280;35340;52.378;4.648;2023-02-14T01:27:35;103499.81;;;16.98;52.55
48942;BME280;35340;52.378;4.648;2023-02-14T01:30:02;103505.09;;;16.99;52.34
48942;BME280;35340;52.378;4.648;2023-02-14T01:32:30;103498.94;;;16.97;52.12
48942;BME280;35340;52.378;4.648;2023-02-14T01:34:56;103501.53;;;16.97;52.29
48942;BME280;35340;52.378;4.648;2023-02-14T01:37:21;103500.66;;;16.97;52.33
48942;BME280;35340;52.378;4.648;2023-02-14T01:39:47;103498.00;;;16.95;52.36
48942;BME280;35340;52.378;4.648;2023-02-14T01:42:12;103491.06;;;16.96;52.35
48942;BME280;35340;52.378;4.648;2023-02-14T01:47:06;103496.25;;;16.94;51.98
48942;BME280;35340;52.378;4.648;2023-02-14T01:49:37;103496.25;;;16.94;52.05
48942;BME280;35340;52.378;4.648;2023-02-14T01:52:52;103494.53;;;16.95;52.05
48942;BME280;35340;52.378;4.648;2023-02-14T01:55:22;103492.75;;;16.94;52.14
48942;BME280;35340;52.378;4.648;2023-02-14T01:57:54;103493.66;;;16.94;52.26
48942;BME280;35340;52.378;4.648;2023-02-14T02:00:22;103493.59;;;16.93;52.26
48942;BME280;35340;52.378;4.648;2023-02-14T02:03:07;103495.34;;;16.94;52.10
48942;BME280;35340;52.378;4.648;2023-02-14T02:05:36;103493.59;;;16.93;52.08
48942;BME280;35340;52.378;4.648;2023-02-14T02:08:02;103493.59;;;16.93;52.06
48942;BME280;35340;52.378;4.648;2023-02-14T02:10:28;103487.44;;;16.91;52.05
48942;BME280;35340;52.378;4.648;2023-02-14T02:12:53;103486.56;;;16.90;51.83
48942;BME280;35340;52.378;4.648;2023-02-14T02:15:23;103488.31;;;16.91;52.09
48942;BME280;35340;52.378;4.648;2023-02-14T02:18:10;103489.16;;;16.90;51.91
48942;BME280;35340;52.378;4.648;2023-02-14T02:27:18;103482.16;;;16.89;51.96
48942;BME280;35340;52.378;4.648;2023-02-14T02:30:11;103488.25;;;16.90;51.89
48942;BME280;35340;52.378;4.648;2023-02-14T02:46:02;103489.00;;;16.85;51.83
48942;BME280;35340;52.378;4.648;2023-02-14T02:49:28;103485.56;;;16.86;51.91
48942;BME280;35340;52.378;4.648;2023-02-14T02:58:34;103471.75;;;16.88;52.04
48942;BME280;35340;52.378;4.648;2023-02-14T03:01:03;103481.22;;;16.87;51.97
48942;BME280;35340;52.378;4.648;2023-02-14T03:03:32;103478.63;;;16.87;51.75
48942;BME280;35340;52.378;4.648;2023-02-14T03:06:17;103472.63;;;16.88;51.90
48942;BME280;35340;52.378;4.648;2023-02-14T03:08:43;103476.03;;;16.87;51.90
48942;BME280;35340;52.378;4.648;2023-02-14T03:11:09;103474.28;;;16.86;51.99
48942;BME280;35340;52.378;4.648;2023-02-14T03:16:22;103469.94;;;16.86;51.92
48942;BME280;35340;52.378;4.648;2023-02-14T03:19:05;103477.81;;;16.88;51.90
48942;BME280;35340;52.378;4.648;2023-02-14T03:22:25;103469.13;;;16.88;51.75
48942;BME280;35340;52.378;4.648;2023-02-14T03:24:55;103471.75;;;16.88;51.81
48942;BME280;35340;52.378;4.648;2023-02-14T03:27:34;103471.78;;;16.89;51.77
48942;BME280;35340;52.378;4.648;2023-02-14T03:32:49;103469.94;;;16.86;51.91
48942;BME280;35340;52.378;4.648;2023-02-14T03:40:40;103465.59;;;16.85;51.84
48942;BME280;35340;52.378;4.648;2023-02-14T03:43:14;103461.22;;;16.84;52.10
48942;BME280;35340;52.378;4.648;2023-02-14T03:45:45;103463.75;;;16.83;51.89
48942;BME280;35340;52.378;4.648;2023-02-14T03:48:13;103465.53;;;16.84;51.96
48942;BME280;35340;52.378;4.648;2023-02-14T03:50:43;103461.16;;;16.83;51.93
48942;BME280;35340;52.378;4.648;2023-02-14T03:53:11;103458.53;;;16.83;51.99
48942;BME280;35340;52.378;4.648;2023-02-14T03:55:52;103458.53;;;16.83;51.82
48942;BME280;35340;52.378;4.648;2023-02-14T03:58:23;103455.91;;;16.81;51.67
48942;BME280;35340;52.378;4.648;2023-02-14T04:00:58;103463.72;;;16.81;51.87
48942;BME280;35340;52.378;4.648;2023-02-14T04:03:26;103459.31;;;16.80;51.91
48942;BME280;35340;52.378;4.648;2023-02-14T04:05:53;103456.72;;;16.80;52.10
48942;BME280;35340;52.378;4.648;2023-02-14T04:08:21;103452.34;;;16.79;51.78
48942;BME280;35340;52.378;4.648;2023-02-14T04:10:48;103453.25;;;16.80;51.71
48942;BME280;35340;52.378;4.648;2023-02-14T04:13:14;103452.34;;;16.79;51.69
48942;BME280;35340;52.378;4.648;2023-02-14T04:15:39;103453.31;;;16.81;51.84
48942;BME280;35340;52.378;4.648;2023-02-14T04:18:05;103455.84;;;16.80;52.01
48942;BME280;35340;52.378;4.648;2023-02-14T04:20:49;103458.44;;;16.80;51.80
48942;BME280;35340;52.378;4.648;2023-02-14T04:23:14;103456.72;;;16.80;51.69
48942;BME280;35340;52.378;4.648;2023-02-14T04:25:40;103452.41;;;16.81;51.60
48942;BME280;35340;52.378;4.648;2023-02-14T04:28:07;103458.44;;;16.80;51.77
48942;BME280;35340;52.378;4.648;2023-02-14T04:30:33;103460.22;;;16.81;51.77
48942;BME280;35340;52.378;4.648;2023-02-14T04:32:58;103455.84;;;16.80;51.88
48942;BME280;35340;52.378;4.648;2023-02-14T04:35:24;103466.31;;;16.81;51.83
48942;BME280;35340;52.378;4.648;2023-02-14T04:37:49;103462.81;;;16.81;51.66
48942;BME280;35340;52.378;4.648;2023-02-14T04:40:15;103462.81;;;16.81;51.78
48942;BME280;35340;52.378;4.648;2023-02-14T04:42:42;103466.31;;;16.81;51.72
48942;BME280;35340;52.378;4.648;2023-02-14T04:45:08;103468.00;;;16.81;51.52
48942;BME280;35340;52.378;4.648;2023-02-14T04:47:33;103460.22;;;16.81;51.83
48942;BME280;35340;52.378;4.648;2023-02-14T04:49:59;103462.81;;;16.81;51.85
48942;BME280;35340;52.378;4.648;2023-02-14T04:52:24;103456.72;;;16.80;51.72
48942;BME280;35340;52.378;4.648;2023-02-14T04:54:50;103457.53;;;16.79;51.67
48942;BME280;35340;52.378;4.648;2023-02-14T04:57:15;103460.94;;;16.78;51.67
48942;BME280;35340;52.378;4.648;2023-02-14T04:59:41;103458.31;;;16.77;51.65
48942;BME280;35340;52.378;4.648;2023-02-14T05:02:06;103454.88;;;16.78;51.75
48942;BME280;35340;52.378;4.648;2023-02-14T05:04:32;103459.19;;;16.77;51.76
48942;BME280;35340;52.378;4.648;2023-02-14T05:06:59;103451.47;;;16.79;51.62
48942;BME280;35340;52.378;4.648;2023-02-14T05:09:25;103452.28;;;16.78;51.63
48942;BME280;35340;52.378;4.648;2023-02-14T05:11:50;103448.88;;;16.79;51.95
48942;BME280;35340;52.378;4.648;2023-02-14T05:14:16;103442.75;;;16.78;52.11
48942;BME280;35340;52.378;4.648;2023-02-14T05:16:41;103441.88;;;16.78;51.75
48942;BME280;35340;52.378;4.648;2023-02-14T05:19:07;103439.28;;;16.78;51.81
48942;BME280;35340;52.378;4.648;2023-02-14T05:21:32;103445.34;;;16.78;51.75
48942;BME280;35340;52.378;4.648;2023-02-14T05:23:59;103441.88;;;16.78;51.68
48942;BME280;35340;52.378;4.648;2023-02-14T05:26:24;103442.75;;;16.78;51.86
48942;BME280;35340;52.378;4.648;2023-02-14T05:28:50;103450.56;;;16.78;51.74
48942;BME280;35340;52.378;4.648;2023-02-14T05:31:15;103447.06;;;16.78;51.52
48942;BME280;35340;52.378;4.648;2023-02-14T05:33:41;103443.66;;;16.79;51.74
48942;BME280;35340;52.378;4.648;2023-02-14T05:36:06;103441.94;;;16.79;51.75
48942;BME280;35340;52.378;4.648;2023-02-14T05:38:32;103442.75;;;16.78;51.72
48942;BME280;35340;52.378;4.648;2023-02-14T05:40:59;103446.25;;;16.79;51.79
48942;BME280;35340;52.378;4.648;2023-02-14T05:43:24;103444.47;;;16.78;51.64
48942;BME280;35340;52.378;4.648;2023-02-14T05:45:50;103436.66;;;16.78;51.81
48942;BME280;35340;52.378;4.648;2023-02-14T05:48:16;103440.16;;;16.78;51.58
48942;BME280;35340;52.378;4.648;2023-02-14T05:50:42;103442.75;;;16.78;51.64
48942;BME280;35340;52.378;4.648;2023-02-14T05:53:09;103437.56;;;16.78;51.39
48942;BME280;35340;52.378;4.648;2023-02-14T05:55:34;103441.00;;;16.77;51.48
48942;BME280;35340;52.378;4.648;2023-02-14T05:58:00;103433.19;;;16.77;51.62
48942;BME280;35340;52.378;4.648;2023-02-14T06:00:26;103431.47;;;16.78;51.76
48942;BME280;35340;52.378;4.648;2023-02-14T06:02:52;103435.78;;;16.77;51.86
48942;BME280;35340;52.378;4.648;2023-02-14T06:05:17;103426.28;;;16.78;51.82
48942;BME280;35340;52.378;4.648;2023-02-14T06:07:44;103422.84;;;16.79;51.53
48942;BME280;35340;52.378;4.648;2023-02-14T06:10:17;103425.47;;;16.79;51.73
48942;BME280;35340;52.378;4.648;2023-02-14T06:12:43;103433.25;;;16.79;51.53
48942;BME280;35340;52.378;4.648;2023-02-14T06:15:09;103433.25;;;16.79;51.72
48942;BME280;35340;52.378;4.648;2023-02-14T06:17:34;103430.66;;;16.79;51.80
48942;BME280;35340;52.378;4.648;2023-02-14T06:20:00;103433.25;;;16.79;51.47
48942;BME280;35340;52.378;4.648;2023-02-14T06:22:25;103435.84;;;16.79;51.80
48942;BME280;35340;52.378;4.648;2023-02-14T06:24:51;103434.13;;;16.79;51.72
48942;BME280;35340;52.378;4.648;2023-02-14T06:27:16;103435.84;;;16.79;52.02
48942;BME280;35340;52.378;4.648;2023-02-14T06:29:41;103432.34;;;16.78;51.86
48942;BME280;35340;52.378;4.648;2023-02-14T06:32:07;103434.06;;;16.78;51.97
48942;BME280;35340;52.378;4.648;2023-02-14T06:34:33;103428.88;;;16.78;51.66
48942;BME280;35340;52.378;4.648;2023-02-14T06:36:59;103429.75;;;16.78;51.83
48942;BME280;35340;52.378;4.648;2023-02-14T06:39:24;103430.66;;;16.79;51.77
48942;BME280;35340;52.378;4.648;2023-02-14T06:41:50;103425.41;;;16.77;51.94
48942;BME280;35340;52.378;4.648;2023-02-14T06:44:15;103427.16;;;16.78;51.97
48942;BME280;35340;52.378;4.648;2023-02-14T06:46:40;103425.47;;;16.79;51.98
48942;BME280;35340;52.378;4.648;2023-02-14T06:49:06;103424.66;;;16.80;52.01
48942;BME280;35340;52.378;4.648;2023-02-14T06:51:31;103428.94;;;16.79;51.78
48942;BME280;35340;52.378;4.648;2023-02-14T06:53:57;103433.31;;;16.80;51.94
48942;BME280;35340;52.378;4.648;2023-02-14T06:56:22;103432.44;;;16.80;51.88
48942;BME280;35340;52.378;4.648;2023-02-14T06:58:48;103432.44;;;16.80;52.08
48942;BME280;35340;52.378;4.648;2023-02-14T07:01:13;103429.00;;;16.81;52.26
48942;BME280;35340;52.378;4.648;2023-02-14T07:03:39;103434.19;;;16.81;52.17
48942;BME280;35340;52.378;4.648;2023-02-14T07:06:04;103433.31;;;16.80;51.91
48942;BME280;35340;52.378;4.648;2023-02-14T07:08:30;103436.81;;;16.81;52.11
48942;BME280;35340;52.378;4.648;2023-02-14T07:10:56;103434.19;;;16.81;52.10
48942;BME280;35340;52.378;4.648;2023-02-14T07:13:21;103433.38;;;16.82;52.12
48942;BME280;35340;52.378;4.648;2023-02-14T07:15:47;103436.88;;;16.82;52.02
48942;BME280;35340;52.378;4.648;2023-02-14T07:18:14;103434.25;;;16.82;52.21
48942;BME280;35340;52.378;4.648;2023-02-14T07:20:40;103435.13;;;16.83;51.87
48942;BME280;35340;52.378;4.648;2023-02-14T07:23:35;103436.06;;;16.83;52.07
48942;BME280;35340;52.378;4.648;2023-02-14T07:26:23;103443.06;;;16.86;51.92
48942;BME280;35340;52.378;4.648;2023-02-14T07:31:42;103435.25;;;16.86;51.85
48942;BME280;35340;52.378;4.648;2023-02-14T07:34:16;103443.94;;;16.86;51.94
48942;BME280;35340;52.378;4.648;2023-02-14T07:36:53;103451.84;;;16.90;51.70
48942;BME280;35340;52.378;4.648;2023-02-14T07:39:29;103447.56;;;16.90;51.45
48942;BME280;35340;52.378;4.648;2023-02-14T07:42:04;103445.75;;;16.89;51.73
48942;BME280;35340;52.378;4.648;2023-02-14T07:44:59;103438.09;;;16.92;51.55
48942;BME280;35340;52.378;4.648;2023-02-14T07:47:37;103434.56;;;16.92;51.52
48942;BME280;35340;52.378;4.648;2023-02-14T07:53:04;103435.56;;;16.95;51.52
48942;BME280;35340;52.378;4.648;2023-02-14T07:55:35;103437.38;;;16.96;51.46
48942;BME280;35340;52.378;4.648;2023-02-14T08:01:17;103442.59;;;16.98;51.37
48942;BME280;35340;52.378;4.648;2023-02-14T08:04:24;103435.63;;;16.97;51.52
48942;BME280;35340;52.378;4.648;2023-02-14T08:07:14;103439.19;;;16.99;51.21
48942;BME280;35340;52.378;4.648;2023-02-14T08:09:42;103433.97;;;16.99;51.16
48942;BME280;35340;52.378;4.648;2023-02-14T08:12:08;103440.06;;;16.99;51.21
48942;BME280;35340;52.378;4.648;2023-02-14T08:14:55;103444.41;;;17.00;51.09
48942;BME280;35340;52.378;4.648;2023-02-14T08:17:41;103442.75;;;17.02;51.20
48942;BME280;35340;52.378;4.648;2023-02-14T08:20:14;103447.13;;;17.03;51.11
48942;BME280;35340;52.378;4.648;2023-02-14T08:22:42;103448.88;;;17.04;50.95
48942;BME280;35340;52.378;4.648;2023-02-14T08:25:10;103448.06;;;17.05;51.23
48942;BME280;35340;52.378;4.648;2023-02-14T08:27:35;103457.69;;;17.08;51.10
48942;BME280;35340;52.378;4.648;2023-02-14T08:30:04;103452.50;;;17.08;50.93
48942;BME280;35340;52.378;4.648;2023-02-14T08:32:33;103454.31;;;17.11;50.77
48942;BME280;35340;52.378;4.648;2023-02-14T08:35:04;103445.69;;;17.12;50.93
48942;BME280;35340;52.378;4.648;2023-02-14T08:37:32;103448.31;;;17.13;50.84
48942;BME280;35340;52.378;4.648;2023-02-14T08:40:03;103441.50;;;17.17;50.91
48942;BME280;35340;52.378;4.648;2023-02-14T08:42:31;103451.91;;;17.17;51.12
48942;BME280;35340;52.378;4.648;2023-02-14T08:45:06;103452.94;;;17.22;50.83
48942;BME280;35340;52.378;4.648;2023-02-14T08:47:32;103453.94;;;17.25;50.74
48942;BME280;35340;52.378;4.648;2023-02-14T08:50:04;103453.16;;;17.28;50.67
48942;BME280;35340;52.378;4.648;2023-02-14T08:52:30;103441.94;;;17.29;50.69
48942;BME280;35340;52.378;4.648;2023-02-14T08:54:56;103446.34;;;17.32;50.74
48942;BME280;35340;52.378;4.648;2023-02-14T08:57:21;103449.81;;;17.32;50.68
48942;BME280;35340;52.378;4.648;2023-02-14T08:59:47;103446.38;;;17.33;50.81
48942;BME280;35340;52.378;4.648;2023-02-14T09:02:13;103442.97;;;17.34;50.59
48942;BME280;35340;52.378;4.648;2023-02-14T09:04:41;103445.63;;;17.36;50.71
48942;BME280;35340;52.378;4.648;2023-02-14T09:07:06;103443.03;;;17.36;50.45
48942;BME280;35340;52.378;4.648;2023-02-14T09:09:32;103447.38;;;17.37;50.59
48942;BME280;35340;52.378;4.648;2023-02-14T09:12:04;103443.03;;;17.37;50.39
48942;BME280;35340;52.378;4.648;2023-02-14T09:14:38;103435.28;;;17.39;50.42
48942;BME280;35340;52.378;4.648;2023-02-14T09:17:05;103441.34;;;17.38;50.46
48942;BME280;35340;52.378;4.648;2023-02-14T09:19:34;103445.66;;;17.37;50.22
48942;BME280;35340;52.378;4.648;2023-02-14T09:22:03;103443.97;;;17.38;50.58
48942;BME280;35340;52.378;4.648;2023-02-14T09:24:30;103434.34;;;17.37;50.52
48942;BME280;35340;52.378;4.648;2023-02-14T09:26:56;103436.97;;;17.37;50.47
48942;BME280;35340;52.378;4.648;2023-02-14T09:29:26;103437.84;;;17.37;50.49
48942;BME280;35340;52.378;4.648;2023-02-14T09:31:56;103435.22;;;17.37;50.53
48942;BME280;35340;52.378;4.648;2023-02-14T09:34:22;103436.09;;;17.36;50.63
48942;BME280;35340;52.378;4.648;2023-02-14T09:36:51;103442.16;;;17.37;50.61
48942;BME280;35340;52.378;4.648;2023-02-14T09:39:36;103437.81;;;17.36;50.56
48942;BME280;35340;52.378;4.648;2023-02-14T09:44:47;103441.28;;;17.36;50.64
48942;BME280;35340;52.378;4.648;2023-02-14T09:47:35;103437.81;;;17.36;50.77
48942;BME280;35340;52.378;4.648;2023-02-14T09:50:05;103436.91;;;17.35;50.69
48942;BME280;35340;52.378;4.648;2023-02-14T09:52:32;103433.44;;;17.35;50.59
48942;BME280;35340;52.378;4.648;2023-02-14T09:54:59;103435.97;;;17.33;50.67
48942;BME280;35340;52.378;4.648;2023-02-14T09:57:44;103432.53;;;17.34;50.61
48942;BME280;35340;52.378;4.648;2023-02-14T10:00:32;103434.28;;;17.34;50.89
48942;BME280;35340;52.378;4.648;2023-02-14T10:05:57;103434.28;;;17.34;50.95
48942;BME280;35340;52.378;4.648;2023-02-14T10:09:05;103440.34;;;17.34;50.65
48942;BME280;35340;52.378;4.648;2023-02-14T10:11:36;103437.75;;;17.34;50.72
48942;BME280;35340;52.378;4.648;2023-02-14T10:14:13;103432.53;;;17.34;50.73
48942;BME280;35340;52.378;4.648;2023-02-14T10:16:51;103437.75;;;17.34;50.81
48942;BME280;35340;52.378;4.648;2023-02-14T10:19:22;103433.38;;;17.33;50.71
48942;BME280;35340;52.378;4.648;2023-02-14T10:21:58;103431.66;;;17.34;50.99
48942;BME280;35340;52.378;4.648;2023-02-14T10:30:05;103435.97;;;17.33;50.87
48942;BME280;35340;52.378;4.648;2023-02-14T10:43:56;103425.63;;;17.35;50.82
48942;BME280;35340;52.378;4.648;2023-02-14T10:46:35;103421.25;;;17.34;50.79
48942;BME280;35340;52.378;4.648;2023-02-14T10:49:33;103423.00;;;17.35;50.69
48942;BME280;35340;52.378;4.648;2023-02-14T10:55:23;103407.41;;;17.35;50.75
48942;BME280;35340;52.378;4.648;2023-02-14T10:57:53;103413.53;;;17.37;50.69
48942;BME280;35340;52.378;4.648;2023-02-14T11:00:33;103410.94;;;17.37;50.61
48942;BME280;35340;52.378;4.648;2023-02-14T11:03:01;103408.34;;;17.37;50.78
48942;BME280;35340;52.378;4.648;2023-02-14T11:05:46;103399.66;;;17.36;50.69
48942;BME280;35340;52.378;4.648;2023-02-14T11:08:33;103400.53;;;17.37;50.88
48942;BME280;35340;52.378;4.648;2023-02-14T11:11:19;103396.19;;;17.37;50.54
48942;BME280;35340;52.378;4.648;2023-02-14T11:13:47;103398.78;;;17.37;50.61
48942;BME280;35340;52.378;4.648;2023-02-14T11:16:33;103397.09;;;17.38;50.72
48942;BME280;35340;52.378;4.648;2023-02-14T11:21:45;103396.25;;;17.39;50.73
48942;BME280;35340;52.378;4.648;2023-02-14T11:29:34;103390.22;;;17.40;50.57
48942;BME280;35340;52.378;4.648;2023-02-14T11:32:20;103384.16;;;17.41;50.46
48942;BME280;35340;52.378;4.648;2023-02-14T11:35:07;103372.88;;;17.40;50.75
48942;BME280;35340;52.378;4.648;2023-02-14T11:37:45;103378.13;;;17.42;50.69
48942;BME280;35340;52.378;4.648;2023-02-14T11:40:40;103372.03;;;17.41;50.83
48942;BME280;35340;52.378;4.648;2023-02-14T11:45:37;103359.91;;;17.42;50.74
48942;BME280;35340;52.378;4.648;2023-02-14T11:50:51;103354.75;;;17.43;50.70
48942;BME280;35340;52.378;4.648;2023-02-14T11:53:21;103348.66;;;17.43;50.73
48942;BME280;35340;52.378;4.648;2023-02-14T11:55:51;103342.59;;;17.44;50.70
48942;BME280;35340;52.378;4.648;2023-02-14T12:00:55;103344.38;;;17.45;50.50
48942;BME280;35340;52.378;4.648;2023-02-14T12:03:23;103341.78;;;17.45;50.79
48942;BME280;35340;52.378;4.648;2023-02-14T12:05:50;103330.53;;;17.46;50.65
48942;BME280;35340;52.378;4.648;2023-02-14T12:08:26;103328.81;;;17.46;50.78
48942;BME280;35340;52.378;4.648;2023-02-14T12:11:18;103323.63;;;17.46;50.69
48942;BME280;35340;52.378;4.648;2023-02-14T12:13:57;103324.50;;;17.47;50.65
48942;BME280;35340;52.378;4.648;2023-02-14T12:16:31;103315.84;;;17.48;50.75
48942;BME280;35340;52.378;4.648;2023-02-14T12:19:06;103313.22;;;17.48;50.69
48942;BME280;35340;52.378;4.648;2023-02-14T12:21:50;103312.41;;;17.49;50.67
48942;BME280;35340;52.378;4.648;2023-02-14T12:24:47;103304.59;;;17.49;50.28
48942;BME280;35340;52.378;4.648;2023-02-14T12:27:32;103305.41;;;17.48;50.69
48942;BME280;35340;52.378;4.648;2023-02-14T12:32:46;103295.00;;;17.48;50.90
48942;BME280;35340;52.378;4.648;2023-02-14T12:36:03;103296.78;;;17.49;50.63
48942;BME280;35340;52.378;4.648;2023-02-14T12:44:53;103281.16;;;17.49;50.67
48942;BME280;35340;52.378;4.648;2023-02-14T12:48:04;103275.09;;;17.48;50.40
48942;BME280;35340;52.378;4.648;2023-02-14T12:53:36;103277.72;;;17.50;50.53
48942;BME280;35340;52.378;4.648;2023-02-14T13:02:36;103271.63;;;17.50;50.68
48942;BME280;35340;52.378;4.648;2023-02-14T13:05:23;103262.94;;;17.49;50.75
48942;BME280;35340;52.378;4.648;2023-02-14T13:08:12;103268.19;;;17.51;50.53
48942;BME280;35340;52.378;4.648;2023-02-14T13:13:28;103261.22;;;17.50;50.54
48942;BME280;35340;52.378;4.648;2023-02-14T13:17:10;103262.97;;;17.51;50.45
48942;BME280;35340;52.378;4.648;2023-02-14T13:21:55;103249.06;;;17.50;50.58
48942;BME280;35340;52.378;4.648;2023-02-14T13:24:24;103249.06;;;17.50;50.48
48942;BME280;35340;52.378;4.648;2023-02-14T13:26:55;103232.59;;;17.50;50.39
48942;BME280;35340;52.378;4.648;2023-02-14T13:29:25;103242.13;;;17.49;50.55
48942;BME280;35340;52.378;4.648;2023-02-14T13:31:56;103242.16;;;17.51;50.43
48942;BME280;35340;52.378;4.648;2023-02-14T13:34:32;103239.53;;;17.51;50.45
48942;BME280;35340;52.378;4.648;2023-02-14T13:37:00;103242.16;;;17.51;50.54
48942;BME280;35340;52.378;4.648;2023-02-14T13:39:36;103236.94;;;17.51;50.46
48942;BME280;35340;52.378;4.648;2023-02-14T13:42:04;103242.16;;;17.51;50.56
48942;BME280;35340;52.378;4.648;2023-02-14T13:44:49;103231.72;;;17.51;50.43
48942;BME280;35340;52.378;4.648;2023-02-14T13:47:19;103230.03;;;17.51;50.42
48942;BME280;35340;52.378;4.648;2023-02-14T13:50:02;103224.81;;;17.51;50.43
48942;BME280;35340;52.378;4.648;2023-02-14T13:53:00;103222.25;;;17.53;50.45
48942;BME280;35340;52.378;4.648;2023-02-14T13:55:32;103215.28;;;17.52;50.66
48942;BME280;35340;52.378;4.648;2023-02-14T13:58:18;103220.50;;;17.52;50.58
48942;BME280;35340;52.378;4.648;2023-02-14T14:00:47;103217.91;;;17.52;50.57
48942;BME280;35340;52.378;4.648;2023-02-14T14:03:51;103232.66;;;17.53;50.45
48942;BME280;35340;52.378;4.648;2023-02-14T14:06:07;103227.44;;;17.53;50.50
48942;BME280;35340;52.378;4.648;2023-02-14T14:11:09;103211.81;;;17.51;50.31
48942;BME280;35340;52.378;4.648;2023-02-14T14:21:59;103215.28;;;17.52;50.48
48942;BME280;35340;52.378;4.648;2023-02-14T14:24:30;103210.09;;;17.52;50.53
48942;BME280;35340;52.378;4.648;2023-02-14T14:29:34;103214.44;;;17.53;50.45
48942;BME280;35340;52.378;4.648;2023-02-14T14:32:24;103207.47;;;17.52;50.41
48942;BME280;35340;52.378;4.648;2023-02-14T14:34:59;103205.75;;;17.52;50.33
48942;BME280;35340;52.378;4.648;2023-02-14T14:37:31;103207.47;;;17.52;50.44
48942;BME280;35340;52.378;4.648;2023-02-14T14:39:59;103205.75;;;17.52;50.48
48942;BME280;35340;52.378;4.648;2023-02-14T14:42:32;103203.16;;;17.52;50.36
48942;BME280;35340;52.378;4.648;2023-02-14T14:45:01;103192.69;;;17.51;50.33
48942;BME280;35340;52.378;4.648;2023-02-14T14:47:33;103203.16;;;17.52;50.22
48942;BME280;35340;52.378;4.648;2023-02-14T14:50:08;103197.06;;;17.52;50.33
48942;BME280;35340;52.378;4.648;2023-02-14T14:52:41;103197.88;;;17.51;50.43
48942;BME280;35340;52.378;4.648;2023-02-14T14:55:16;103201.41;;;17.51;50.41
48942;BME280;35340;52.378;4.648;2023-02-14T14:57:48;103200.50;;;17.51;50.23
48942;BME280;35340;52.378;4.648;2023-02-14T15:03:15;103204.00;;;17.51;50.17
48942;BME280;35340;52.378;4.648;2023-02-14T15:05:47;103201.41;;;17.51;50.03
48942;BME280;35340;52.378;4.648;2023-02-14T15:08:15;103203.09;;;17.51;50.29
48942;BME280;35340;52.378;4.648;2023-02-14T15:10:48;103199.63;;;17.50;50.35
48942;BME280;35340;52.378;4.648;2023-02-14T15:13:15;103192.66;;;17.49;50.24
48942;BME280;35340;52.378;4.648;2023-02-14T15:15:59;103202.19;;;17.48;50.31
48942;BME280;35340;52.378;4.648;2023-02-14T15:18:25;103198.75;;;17.50;50.31
48942;BME280;35340;52.378;4.648;2023-02-14T15:20:51;103202.22;;;17.50;50.60
48942;BME280;35340;52.378;4.648;2023-02-14T15:23:21;103203.94;;;17.50;50.29
48942;BME280;35340;52.378;4.648;2023-02-14T15:25:48;103200.50;;;17.51;50.33